Time;durP1;ratioP1;P1;durP2;ratioP2;P2;SDS_P1;SDS_P2;PMS_P1;PMS_P2;Temp;Humidity;BMP_temperature;BMP_pressure;BME280_temperature;BME280_humidity;BME280_pressure;Samples;Min_cycle;Max_cycle;Signal;HPM_P1;HPM_P2
2023/12/22 00:03:42;;;;;;;13.97;1.07;;;;;5.00;94534.00;;;;8266747;28;20325;-80
2023/12/22 00:07:46;;;;;;;2.23;0.93;;;;;5.00;94558.00;;;;8265631;28;20230;-80
2023/12/22 00:11:50;;;;;;;7.97;1.17;;;;;5.00;94552.00;;;;8266834;28;20245;-80
2023/12/22 00:15:53;;;;;;;2.13;1.07;;;;;5.00;94543.00;;;;8266341;28;20218;-80
2023/12/22 00:19:59;;;;;;;0.83;0.73;;;;;5.00;94559.00;;;;8265831;28;20534;-80
2023/12/22 00:24:04;;;;;;;7.30;0.87;;;;;5.00;94535.00;;;;8266188;28;20265;-80
2023/12/22 00:28:07;;;;;;;4.47;0.90;;;;;4.90;94563.00;;;;8265934;28;20191;-79
2023/12/22 00:32:10;;;;;;;5.17;1.00;;;;;4.90;94557.00;;;;8265469;28;20190;-79
2023/12/22 00:36:13;;;;;;;13.80;1.40;;;;;4.80;94541.00;;;;8266180;28;20202;-80
2023/12/22 00:40:18;;;;;;;3.83;1.83;;;;;4.80;94557.00;;;;8270510;28;20237;-80
2023/12/22 00:44:21;;;;;;;7.73;1.73;;;;;4.80;94561.00;;;;8272122;28;20224;-80
2023/12/22 00:48:25;;;;;;;9.77;1.87;;;;;4.80;94541.00;;;;8271722;28;20214;-80
2023/12/22 00:52:28;;;;;;;5.23;1.47;;;;;4.80;94560.00;;;;8271846;28;20510;-80
2023/12/22 00:56:33;;;;;;;9.07;1.43;;;;;4.80;94531.00;;;;8270870;28;20213;-80
2023/12/22 01:00:36;;;;;;;3.40;1.40;;;;;4.70;94514.00;;;;8272145;28;20663;-80
2023/12/22 01:04:39;;;;;;;10.83;1.60;;;;;4.60;94520.00;;;;8270796;28;20609;-80
2023/12/22 01:08:42;;;;;;;6.50;1.63;;;;;4.60;94517.00;;;;8271493;28;20206;-79
2023/12/22 01:12:47;;;;;;;5.90;1.53;;;;;4.60;94526.00;;;;8270621;28;20226;-79
2023/12/22 01:16:50;;;;;;;8.33;1.47;;;;;4.60;94548.00;;;;8269165;28;20676;-79
2023/12/22 01:20:53;;;;;;;9.43;1.77;;;;;4.60;94560.00;;;;8270832;28;20282;-79
2023/12/22 01:24:56;;;;;;;8.90;1.87;;;;;4.60;94564.00;;;;8270556;28;20285;-79
2023/12/22 01:29:01;;;;;;;4.40;1.77;;;;;4.60;94561.00;;;;8270275;28;20198;-78
2023/12/22 01:33:04;;;;;;;5.73;1.57;;;;;4.60;94559.00;;;;8270458;28;20268;-78
2023/12/22 01:37:08;;;;;;;18.50;3.00;;;;;4.60;94551.00;;;;8268861;28;20285;-78
2023/12/22 01:41:11;;;;;;;9.73;1.50;;;;;4.60;94543.00;;;;8270243;28;20283;-78
2023/12/22 01:45:16;;;;;;;9.27;1.60;;;;;4.60;94557.00;;;;8269415;28;20198;-78
2023/12/22 01:49:20;;;;;;;13.00;1.90;;;;;4.50;94574.00;;;;8268513;28;20237;-78
2023/12/22 01:53:25;;;;;;;16.83;2.30;;;;;4.50;94566.00;;;;8269223;28;20274;-78
2023/12/22 01:57:28;;;;;;;11.70;1.80;;;;;4.50;94579.00;;;;8270573;28;20640;-79
2023/12/22 02:01:33;;;;;;;11.80;2.20;;;;;4.50;94579.00;;;;8269859;28;20215;-79
2023/12/22 02:05:36;;;;;;;15.57;2.50;;;;;4.50;94600.00;;;;8269121;28;20210;-79
2023/12/22 02:09:39;;;;;;;8.33;2.17;;;;;4.50;94582.00;;;;8270103;28;20195;-79
2023/12/22 02:13:45;;;;;;;10.23;2.07;;;;;4.50;94598.00;;;;8269334;28;20234;-79
2023/12/22 02:17:54;;;;;;;15.60;2.33;;;;;4.60;94577.00;;;;8269048;28;20274;-79
2023/12/22 02:22:02;;;;;;;11.87;2.10;;;;;4.60;94573.00;;;;8268490;28;20211;-80
2023/12/22 02:26:20;;;;;;;14.80;2.20;;;;;4.60;94566.00;;;;8269569;28;20190;-80
2023/12/22 02:30:29;;;;;;;11.40;2.07;;;;;4.60;94562.00;;;;8268510;28;20198;-80
2023/12/22 02:34:34;;;;;;;14.30;1.90;;;;;4.50;94564.00;;;;8268714;28;20218;-80
2023/12/22 02:38:39;;;;;;;4.60;1.50;;;;;4.50;94565.00;;;;8268805;28;20646;-80
2023/12/22 02:42:45;;;;;;;10.47;1.43;;;;;4.50;94553.00;;;;8268775;28;20564;-79
2023/12/22 02:46:49;;;;;;;8.00;1.63;;;;;4.50;94567.00;;;;8268281;28;20191;-80
2023/12/22 02:50:52;;;;;;;7.50;1.33;;;;;4.50;94584.00;;;;8267518;28;20926;-80
2023/12/22 02:54:55;;;;;;;10.63;1.57;;;;;4.50;94577.00;;;;8268798;28;20237;-80
2023/12/22 02:59:00;;;;;;;9.53;1.43;;;;;4.40;94586.00;;;;8267953;28;20556;-78
2023/12/22 03:03:03;;;;;;;7.37;1.63;;;;;4.40;94605.00;;;;8285906;23;20748;-79
2023/12/22 03:07:06;;;;;;;4.83;1.30;;;;;4.40;94594.00;;;;8252154;28;20210;-79
2023/12/22 03:11:09;;;;;;;4.03;1.40;;;;;4.40;94582.00;;;;8249500;28;20261;-79
2023/12/22 03:15:14;;;;;;;10.53;1.80;;;;;4.40;94596.00;;;;8250938;28;20290;-77
2023/12/22 03:19:17;;;;;;;5.23;1.60;;;;;4.30;94564.00;;;;8247447;28;20213;-75
2023/12/22 03:23:20;;;;;;;3.03;1.43;;;;;4.30;94588.00;;;;8249771;28;20277;-74
2023/12/22 03:27:23;;;;;;;2.10;1.37;;;;;4.30;94589.00;;;;8250960;28;20225;-74
2023/12/22 03:31:28;;;;;;;3.47;1.53;;;;;4.20;94591.00;;;;8246614;28;20850;-75
2023/12/22 03:35:31;;;;;;;4.43;1.20;;;;;4.20;94601.00;;;;8249086;28;20195;-75
2023/12/22 03:39:34;;;;;;;4.97;1.13;;;;;4.20;94601.00;;;;8249455;28;20348;-74
2023/12/22 03:43:37;;;;;;;6.93;1.23;;;;;4.10;94609.00;;;;8248110;28;20231;-75
2023/12/22 03:47:41;;;;;;;3.90;1.37;;;;;4.10;94605.00;;;;8253933;28;20209;-74
2023/12/22 03:51:45;;;;;;;3.73;1.20;;;;;4.10;94616.00;;;;8245681;28;20220;-72
2023/12/22 03:55:48;;;;;;;2.97;1.00;;;;;4.00;94609.00;;;;8248275;28;20289;-74
2023/12/22 03:59:51;;;;;;;1.97;0.80;;;;;4.00;94597.00;;;;8247824;28;20199;-73
2023/12/22 04:03:55;;;;;;;0.87;0.87;;;;;4.00;94617.00;;;;8247701;28;20230;-72
2023/12/22 04:07:58;;;;;;;2.70;1.00;;;;;3.90;94612.00;;;;8237423;28;20212;-73
2023/12/22 04:12:01;;;;;;;1.13;0.90;;;;;3.90;94617.00;;;;8249518;28;20333;-74
2023/12/22 04:16:05;;;;;;;3.83;0.90;;;;;3.80;94629.00;;;;8248728;28;20216;-71
2023/12/22 04:20:12;;;;;;;2.03;1.00;;;;;3.80;94632.00;;;;8234854;28;20262;-73
2023/12/22 04:24:15;;;;;;;7.40;1.40;;;;;3.60;94608.00;;;;8222127;28;20273;-73
2023/12/22 04:28:18;;;;;;;1.30;1.20;;;;;3.50;94621.00;;;;8223393;28;20227;-72
2023/12/22 04:32:21;;;;;;;1.80;0.83;;;;;3.50;94608.00;;;;8222392;28;20226;-75
2023/12/22 04:36:26;;;;;;;0.70;0.70;;;;;3.50;94610.00;;;;8220289;28;20234;-72
2023/12/22 04:40:29;;;;;;;0.77;0.77;;;;;3.50;94611.00;;;;8221680;28;20250;-76
2023/12/22 04:44:32;;;;;;;2.50;0.80;;;;;3.60;94604.00;;;;8221697;28;20314;-74
2023/12/22 04:48:35;;;;;;;2.37;1.10;;;;;3.50;94631.00;;;;8227639;28;20561;-75
2023/12/22 04:52:40;;;;;;;2.97;0.87;;;;;3.50;94628.00;;;;8220652;28;20293;-71
2023/12/22 04:56:44;;;;;;;1.03;0.70;;;;;3.50;94629.00;;;;8222981;28;20210;-72
2023/12/22 05:00:47;;;;;;;2.53;0.97;;;;;3.50;94639.00;;;;8224254;28;20207;-76
2023/12/22 05:04:50;;;;;;;0.70;0.70;;;;;3.40;94638.00;;;;8214897;28;20258;-76
2023/12/22 05:08:54;;;;;;;1.13;0.80;;;;;3.40;94633.00;;;;8215868;28;20216;-77
2023/12/22 05:12:57;;;;;;;1.30;1.00;;;;;3.50;94646.00;;;;8217729;28;20224;-73
2023/12/22 05:17:01;;;;;;;2.80;1.00;;;;;3.40;94632.00;;;;8218315;28;20218;-74
2023/12/22 05:21:05;;;;;;;2.77;0.90;;;;;3.40;94647.00;;;;8220860;28;20214;-74
2023/12/22 05:25:11;;;;;;;4.80;1.00;;;;;3.40;94637.00;;;;8220407;28;20261;-75
2023/12/22 05:29:15;;;;;;;1.93;0.80;;;;;3.50;94650.00;;;;8223240;28;20235;-74
2023/12/22 05:33:18;;;;;;;1.90;1.13;;;;;3.50;94642.00;;;;8222239;28;20192;-74
2023/12/22 05:37:21;;;;;;;2.30;0.93;;;;;3.50;94661.00;;;;8218029;28;20606;-74
2023/12/22 05:41:26;;;;;;;2.70;1.00;;;;;3.60;94677.00;;;;8217405;28;20200;-75
2023/12/22 05:45:29;;;;;;;4.10;1.47;;;;;3.60;94678.00;;;;8214906;28;20262;-74
2023/12/22 05:49:32;;;;;;;2.40;1.10;;;;;3.70;94685.00;;;;8215923;28;20757;-73
2023/12/22 05:53:35;;;;;;;5.17;1.03;;;;;3.70;94680.00;;;;8219669;28;20534;-74
2023/12/22 05:57:40;;;;;;;1.00;1.00;;;;;3.70;94676.00;;;;8219489;28;20211;-76
2023/12/22 06:01:43;;;;;;;3.60;1.00;;;;;3.70;94675.00;;;;8220884;28;20240;-75
2023/12/22 06:05:47;;;;;;;3.10;1.00;;;;;3.80;94679.00;;;;8220097;28;20231;-77
2023/12/22 06:09:50;;;;;;;1.23;0.70;;;;;3.80;94691.00;;;;8216717;28;20229;-74
2023/12/22 06:13:54;;;;;;;2.57;0.87;;;;;3.70;94696.00;;;;8222303;28;20207;-75
2023/12/22 06:17:58;;;;;;;2.20;1.00;;;;;3.70;94670.00;;;;8221861;28;20244;-74
2023/12/22 06:22:01;;;;;;;4.30;1.00;;;;;3.70;94666.00;;;;8216360;28;20602;-74
2023/12/22 06:26:09;;;;;;;1.67;1.00;;;;;3.80;94678.00;;;;8219929;28;20592;-74
2023/12/22 06:30:14;;;;;;;1.40;1.00;;;;;3.80;94660.00;;;;8218251;28;20222;-73
2023/12/22 06:34:19;;;;;;;3.27;1.43;;;;;3.80;94679.00;;;;8216335;28;20277;-74
2023/12/22 06:38:22;;;;;;;0.93;0.90;;;;;3.80;94683.00;;;;8215948;28;20204;-74
2023/12/22 06:42:25;;;;;;;4.07;1.27;;;;;3.80;94692.00;;;;8214880;28;20210;-74
2023/12/22 06:46:30;;;;;;;1.50;1.00;;;;;3.80;94713.00;;;;8216707;28;20313;-74
2023/12/22 06:50:36;;;;;;;7.43;5.07;;;;;3.80;94706.00;;;;8211738;28;21587;-73
2023/12/22 06:54:39;;;;;;;11.40;6.57;;;;;3.70;94711.00;;;;8217597;28;20204;-75
2023/12/22 06:58:43;;;;;;;7.40;2.93;;;;;3.60;94697.00;;;;8218549;28;20660;-74
2023/12/22 07:02:48;;;;;;;3.90;1.23;;;;;3.50;94670.00;;;;8214634;28;20621;-74
2023/12/22 07:06:51;;;;;;;6.97;4.53;;;;;3.40;94737.00;;;;8215998;28;20234;-75
2023/12/22 07:10:54;;;;;;;1.10;1.10;;;;;3.30;94720.00;;;;8220423;28;20202;-74
2023/12/22 07:14:57;;;;;;;0.70;0.70;;;;;3.30;94729.00;;;;8219093;28;20195;-73
2023/12/22 07:19:04;;;;;;;1.67;0.77;;;;;3.20;94733.00;;;;8215394;28;20978;-73
2023/12/22 07:23:07;;;;;;;2.20;0.87;;;;;3.10;94734.00;;;;8215586;28;20711;-73
2023/12/22 07:27:10;;;;;;;9.10;6.40;;;;;3.20;94744.00;;;;8214468;28;20207;-73
2023/12/22 07:31:16;;;;;;;11.73;6.60;;;;;3.30;94743.00;;;;8219018;28;20881;-74
2023/12/22 07:35:23;;;;;;;6.07;2.33;;;;;3.40;94750.00;;;;8211051;28;20218;-73
2023/12/22 07:39:27;;;;;;;10.20;2.00;;;;;3.50;94742.00;;;;8213116;28;20196;-73
2023/12/22 07:43:30;;;;;;;7.53;2.13;;;;;3.60;94736.00;;;;8213665;28;20685;-76
2023/12/22 07:47:36;;;;;;;4.00;2.63;;;;;3.70;94740.00;;;;8214427;28;20196;-74
2023/12/22 07:51:40;;;;;;;5.27;2.10;;;;;3.80;94745.00;;;;8213020;28;20242;-73
2023/12/22 07:55:44;;;;;;;4.73;1.63;;;;;4.00;94747.00;;;;8218307;28;20199;-75
2023/12/22 07:59:47;;;;;;;6.30;2.33;;;;;4.10;94755.00;;;;8209474;28;20208;-73
2023/12/22 08:03:50;;;;;;;9.43;2.43;;;;;4.20;94759.00;;;;8217401;28;20369;-75
2023/12/22 08:07:55;;;;;;;15.77;5.87;;;;;4.30;94759.00;;;;8214478;28;20212;-75
2023/12/22 08:11:58;;;;;;;6.30;1.60;;;;;4.40;94763.00;;;;8211725;28;20199;-74
2023/12/22 08:16:02;;;;;;;6.03;1.90;;;;;4.40;94795.00;;;;8212772;28;20310;-73
2023/12/22 08:20:08;;;;;;;8.70;1.40;;;;;4.50;94785.00;;;;8214945;28;20568;-72
2023/12/22 08:24:22;;;;;;;2.20;1.27;;;;;4.50;94798.00;;;;8211786;28;20249;-72
2023/12/22 08:28:26;;;;;;;4.90;1.47;;;;;4.50;94796.00;;;;8211430;28;20199;-73
2023/12/22 08:32:29;;;;;;;8.17;4.37;;;;;4.60;94798.00;;;;8207266;28;20203;-72
2023/12/22 08:36:32;;;;;;;1.97;1.73;;;;;4.70;94814.00;;;;8211453;28;20239;-71
2023/12/22 08:40:38;;;;;;;3.80;1.80;;;;;4.70;94822.00;;;;8206557;28;20327;-74
2023/12/22 08:44:42;;;;;;;4.90;2.60;;;;;4.80;94829.00;;;;8212218;28;20979;-73
2023/12/22 08:48:45;;;;;;;3.67;1.97;;;;;4.90;94803.00;;;;8203973;28;20218;-75
2023/12/22 08:52:48;;;;;;;7.20;2.50;;;;;5.00;94804.00;;;;8208720;28;20218;-74
2023/12/22 08:56:53;;;;;;;8.40;1.60;;;;;5.10;94829.00;;;;8210844;28;20233;-74
2023/12/22 09:00:56;;;;;;;1.60;1.30;;;;;5.20;94823.00;;;;8216913;28;20302;-74
2023/12/22 09:05:00;;;;;;;3.20;1.40;;;;;5.10;94853.00;;;;8218360;28;20231;-71
2023/12/22 09:09:03;;;;;;;4.93;1.70;;;;;5.10;94855.00;;;;8223390;28;20254;-72
2023/12/22 09:13:08;;;;;;;5.83;1.70;;;;;5.00;94845.00;;;;8216068;28;20298;-74
2023/12/22 09:17:11;;;;;;;10.73;1.77;;;;;5.00;94855.00;;;;8220248;28;20290;-72
2023/12/22 09:21:15;;;;;;;3.97;2.80;;;;;5.00;94831.00;;;;8221218;28;20250;-75
2023/12/22 09:25:19;;;;;;;7.33;1.30;;;;;5.00;94866.00;;;;8219547;28;20235;-74
2023/12/22 09:29:23;;;;;;;5.37;1.27;;;;;5.00;94872.00;;;;8219477;28;20282;-74
2023/12/22 09:33:27;;;;;;;3.60;1.57;;;;;5.00;94892.00;;;;8218002;28;20207;-74
2023/12/22 09:37:30;;;;;;;7.70;1.40;;;;;5.10;94882.00;;;;8217987;28;20856;-73
2023/12/22 09:41:34;;;;;;;1.33;1.20;;;;;5.20;94863.00;;;;8218129;28;20758;-72
2023/12/22 09:45:40;;;;;;;3.23;1.70;;;;;5.30;94870.00;;;;8219844;28;20233;-74
2023/12/22 09:49:44;;;;;;;10.23;1.70;;;;;5.30;94856.00;;;;8211747;28;20822;-75
2023/12/22 09:53:50;;;;;;;1.60;1.30;;;;;5.30;94865.00;;;;8223346;28;20207;-74
2023/12/22 09:57:54;;;;;;;8.73;1.40;;;;;5.40;94866.00;;;;8214561;28;20278;-74
2023/12/22 10:02:00;;;;;;;6.60;2.07;;;;;5.50;94841.00;;;;8215388;28;20266;-74
2023/12/22 10:06:05;;;;;;;9.93;1.70;;;;;5.50;94816.00;;;;8218472;28;20768;-74
2023/12/22 10:10:10;;;;;;;3.77;1.40;;;;;5.60;94831.00;;;;8216562;28;20235;-74
2023/12/22 10:14:20;;;;;;;9.73;1.83;;;;;5.70;94813.00;;;;8219762;28;20191;-75
2023/12/22 10:18:25;;;;;;;7.53;1.67;;;;;5.70;94826.00;;;;8217747;28;20234;-74
2023/12/22 10:22:28;;;;;;;4.70;1.67;;;;;5.70;94797.00;;;;8221200;28;20290;-74
2023/12/22 10:26:31;;;;;;;5.50;1.67;;;;;5.60;94804.00;;;;8218531;28;20801;-73
2023/12/22 10:30:35;;;;;;;3.47;1.90;;;;;5.60;94811.00;;;;8217540;28;20695;-73
2023/12/22 10:34:39;;;;;;;8.83;1.20;;;;;5.50;94821.00;;;;8215462;28;20207;-73
2023/12/22 10:38:44;;;;;;;2.67;1.00;;;;;5.20;94834.00;;;;8216090;28;20206;-75
2023/12/22 10:42:49;;;;;;;3.90;1.30;;;;;5.10;94813.00;;;;8216503;28;20693;-77
2023/12/22 10:46:53;;;;;;;3.50;1.37;;;;;5.00;94823.00;;;;8221630;28;20238;-75
2023/12/22 10:50:58;;;;;;;2.07;0.90;;;;;5.00;94845.00;;;;8216814;28;20200;-75
2023/12/22 10:55:02;;;;;;;1.77;0.97;;;;;4.90;94841.00;;;;8215562;28;20208;-75
2023/12/22 10:59:06;;;;;;;3.60;1.00;;;;;4.90;94808.00;;;;8214962;28;20203;-74
2023/12/22 11:03:16;;;;;;;0.97;0.87;;;;;4.90;94792.00;;;;8214120;28;20267;-73
2023/12/22 11:07:24;;;;;;;3.37;1.33;;;;;5.00;94792.00;;;;8222543;28;20948;-75
2023/12/22 11:11:31;;;;;;;9.10;1.53;;;;;5.00;94781.00;;;;8214536;28;20230;-73
2023/12/22 11:15:36;;;;;;;12.37;1.83;;;;;5.20;94783.00;;;;8214080;28;20287;-70
2023/12/22 11:19:41;;;;;;;7.33;1.83;;;;;5.40;94784.00;;;;8215081;28;20242;-73
2023/12/22 11:23:47;;;;;;;6.43;2.20;;;;;5.50;94756.00;;;;8218441;28;20286;-71
2023/12/22 11:27:53;;;;;;;35.00;14.37;;;;;5.60;94749.00;;;;8216541;28;20234;-73
2023/12/22 11:32:00;;;;;;;8.57;2.67;;;;;5.70;94738.00;;;;8214324;28;20204;-73
2023/12/22 11:36:05;;;;;;;9.27;2.17;;;;;5.70;94740.00;;;;8215373;28;20199;-73
2023/12/22 11:40:15;;;;;;;2.57;1.13;;;;;5.70;94743.00;;;;8213575;28;20219;-74
2023/12/22 11:44:18;;;;;;;3.27;1.33;;;;;5.70;94754.00;;;;8216527;28;20278;-72
2023/12/22 11:48:21;;;;;;;5.67;1.27;;;;;5.60;94759.00;;;;8215349;28;20353;-73
2023/12/22 11:52:28;;;;;;;6.23;0.97;;;;;5.60;94757.00;;;;8218070;28;20200;-75
2023/12/22 11:56:33;;;;;;;9.13;1.60;;;;;5.50;94756.00;;;;8216380;28;20200;-75
2023/12/22 12:00:40;;;;;;;4.83;3.60;;;;;5.50;94778.00;;;;8219228;28;20204;-77
2023/12/22 12:04:43;;;;;;;3.93;3.50;;;;;5.50;94758.00;;;;8212785;28;20793;-74
2023/12/22 12:08:48;;;;;;;1.30;1.30;;;;;5.50;94765.00;;;;8213006;28;20267;-75
2023/12/22 12:13:06;;;;;;;1.27;1.17;;;;;5.50;94722.00;;;;8215614;28;20809;-74
2023/12/22 12:17:11;;;;;;;2.47;1.40;;;;;5.50;94704.00;;;;8219123;28;20210;-74
2023/12/22 12:21:16;;;;;;;7.63;1.30;;;;;5.60;94715.00;;;;8214864;28;20207;-73
2023/12/22 12:25:24;;;;;;;3.13;1.03;;;;;5.70;94711.00;;;;8216229;28;20338;-73
2023/12/22 12:29:39;;;;;;;1.83;1.20;;;;;5.80;94703.00;;;;8220163;28;20203;-75
2023/12/22 12:33:43;;;;;;;4.93;1.30;;;;;5.80;94715.00;;;;8214550;28;20199;-73
2023/12/22 12:37:46;;;;;;;2.47;0.90;;;;;5.90;94700.00;;;;8218440;28;20203;-73
2023/12/22 12:41:56;;;;;;;5.00;1.40;;;;;5.90;94675.00;;;;8220050;28;20203;-74
2023/12/22 12:46:06;;;;;;;5.57;1.23;;;;;6.00;94666.00;;;;8220927;28;20219;-74
2023/12/22 12:50:11;;;;;;;3.13;1.70;;;;;6.10;94666.00;;;;8219257;28;20210;-74
2023/12/22 12:54:15;;;;;;;1.40;1.23;;;;;6.10;94659.00;;;;8217675;28;20282;-73
2023/12/22 12:58:18;;;;;;;7.37;1.80;;;;;6.10;94641.00;;;;8218611;28;20203;-74
2023/12/22 13:02:23;;;;;;;11.97;1.60;;;;;6.20;94628.00;;;;8215697;28;20341;-74
2023/12/22 13:06:27;;;;;;;8.33;1.77;;;;;6.30;94623.00;;;;8228703;28;20234;-74
2023/12/22 13:10:32;;;;;;;11.93;3.47;;;;;6.30;94615.00;;;;8219676;28;20612;-75
2023/12/22 13:14:35;;;;;;;5.40;1.60;;;;;6.40;94603.00;;;;8227398;28;20210;-75
2023/12/22 13:18:40;;;;;;;18.27;3.63;;;;;6.40;94598.00;;;;8220731;28;21015;-75
2023/12/22 13:22:45;;;;;;;20.30;3.50;;;;;6.50;94603.00;;;;8219525;28;20200;-75
2023/12/22 13:26:48;;;;;;;20.50;3.65;;;;;6.60;94578.00;;;;8221248;28;20235;-74
2023/12/22 13:30:51;;;;;;;22.93;3.00;;;;;6.60;94572.00;;;;8224585;28;20700;-75
2023/12/22 13:34:56;;;;;;;15.13;2.92;;;;;6.70;94583.00;;;;8219242;28;20195;-74
2023/12/22 13:39:00;;;;;;;16.87;3.00;;;;;6.70;94576.00;;;;8218718;28;20196;-75
2023/12/22 13:43:03;;;;;;;6.40;2.67;;;;;6.80;94557.00;;;;8221915;28;20290;-75
2023/12/22 13:47:07;;;;;;;14.10;3.00;;;;;6.80;94562.00;;;;8221237;28;20504;-74
2023/12/22 13:51:12;;;;;;;11.67;2.57;;;;;6.90;94557.00;;;;8215711;28;20213;-78
2023/12/22 13:55:18;;;;;;;22.70;2.97;;;;;6.90;94568.00;;;;8216387;28;20195;-77
2023/12/22 13:59:32;;;;;;;12.40;2.22;;;;;6.90;94577.00;;;;8221995;28;20746;-76
2023/12/22 14:03:35;;;;;;;13.27;2.37;;;;;6.90;94561.00;;;;8217055;28;20223;-73
2023/12/22 14:07:39;;;;;;;8.60;2.50;;;;;6.90;94559.00;;;;8220161;28;20329;-74
2023/12/22 14:11:43;;;;;;;8.90;2.42;;;;;7.00;94562.00;;;;8222849;28;20200;-74
2023/12/22 14:15:59;;;;;;;10.77;1.73;;;;;7.00;94561.00;;;;8222183;28;20208;-74
2023/12/22 14:20:05;;;;;;;10.77;1.70;;;;;7.00;94574.00;;;;8216992;28;20199;-74
2023/12/22 14:24:12;;;;;;;12.35;1.40;;;;;7.00;94584.00;;;;8218714;28;20208;-75
2023/12/22 14:28:15;;;;;;;5.90;2.00;;;;;7.00;94592.00;;;;8216244;28;20231;-75
2023/12/22 14:32:19;;;;;;;8.85;1.55;;;;;7.00;94577.00;;;;8217531;28;20230;-74
2023/12/22 14:36:22;;;;;;;10.55;1.67;;;;;7.00;94561.00;;;;8216499;28;20258;-77
2023/12/22 14:40:26;;;;;;;3.90;1.40;;;;;7.00;94568.00;;;;8220103;28;20266;-75
2023/12/22 14:44:30;;;;;;;1.63;1.50;;;;;7.00;94535.00;;;;8216439;28;20923;-74
2023/12/22 14:48:33;;;;;;;4.40;1.27;;;;;7.00;94570.00;;;;8218672;28;20233;-75
2023/12/22 14:52:36;;;;;;;1.73;1.30;;;;;7.00;94569.00;;;;8218250;28;20211;-76
2023/12/22 14:56:42;;;;;;;1.93;1.40;;;;;7.10;94545.00;;;;8216683;28;20246;-74
2023/12/22 15:00:45;;;;;;;5.70;1.20;;;;;7.10;94555.00;;;;8214641;28;20205;-74
2023/12/22 15:04:49;;;;;;;5.28;1.25;;;;;7.10;94545.00;;;;8214508;28;20412;-76
2023/12/22 15:08:52;;;;;;;1.67;1.23;;;;;7.20;94540.00;;;;8216578;28;20239;-77
2023/12/22 15:12:57;;;;;;;2.40;0.80;;;;;7.20;94555.00;;;;8214768;28;20307;-76
2023/12/22 15:17:00;;;;;;;2.00;0.97;;;;;7.30;94537.00;;;;8216130;28;20683;-77
2023/12/22 15:21:05;;;;;;;0.60;0.60;;;;;7.50;94582.00;;;;8214842;28;20290;-78
2023/12/22 15:25:09;;;;;;;4.25;1.00;;;;;7.50;94587.00;;;;8214258;28;20302;-77
2023/12/22 15:29:13;;;;;;;2.97;1.00;;;;;7.60;94589.00;;;;8210943;28;20227;-78
2023/12/22 15:33:17;;;;;;;1.52;0.70;;;;;7.60;94591.00;;;;8212722;28;20211;-78
2023/12/22 15:37:20;;;;;;;0.73;0.73;;;;;7.70;94560.00;;;;8212871;28;20668;-78
2023/12/22 15:41:24;;;;;;;0.90;0.90;;;;;7.70;94560.00;;;;8213576;28;20199;-78
2023/12/22 15:45:30;;;;;;;2.40;0.95;;;;;7.80;94599.00;;;;8212356;28;20211;-78
2023/12/22 15:49:33;;;;;;;0.90;0.90;;;;;7.80;94604.00;;;;8213070;28;20270;-78
2023/12/22 15:53:39;;;;;;;0.90;0.90;;;;;7.70;94610.00;;;;8213927;28;20728;-74
2023/12/22 15:57:42;;;;;;;125.38;47.75;;;;;7.60;94622.00;;;;8212010;28;20246;-74
2023/12/22 16:01:47;;;;;;;3.25;2.95;;;;;7.60;94607.00;;;;8215442;28;20314;-77
2023/12/22 16:05:50;;;;;;;29.55;15.10;;;;;7.50;94609.00;;;;8215044;28;20206;-77
2023/12/22 16:09:53;;;;;;;4.03;3.17;;;;;7.50;94602.00;;;;8217106;28;20227;-78
2023/12/22 16:13:57;;;;;;;24.38;9.50;;;;;7.60;94609.00;;;;8219011;28;20200;-78
2023/12/22 16:18:02;;;;;;;6.55;4.25;;;;;7.60;94624.00;;;;8214776;28;20234;-80
2023/12/22 16:22:05;;;;;;;17.83;10.43;;;;;7.70;94639.00;;;;8221175;28;20200;-80
2023/12/22 16:26:08;;;;;;;72.65;34.78;;;;;7.70;94643.00;;;;8217782;28;20769;-81
2023/12/22 16:30:12;;;;;;;6.63;4.78;;;;;7.80;94607.00;;;;8220410;28;20703;-81
2023/12/22 16:34:17;;;;;;;2.38;2.17;;;;;7.80;94659.00;;;;8222265;28;20650;-81
2023/12/22 16:38:20;;;;;;;25.50;15.68;;;;;7.90;94652.00;;;;8219356;28;20207;-81
2023/12/22 16:42:24;;;;;;;1.17;1.17;;;;;7.90;94646.00;;;;8219336;28;20697;-81
2023/12/22 16:46:27;;;;;;;11.73;6.60;;;;;7.90;94635.00;;;;8219214;28;20230;-82
2023/12/22 16:50:33;;;;;;;2.03;1.25;;;;;7.90;94627.00;;;;8222038;28;20705;-80
2023/12/22 16:54:36;;;;;;;4.35;2.55;;;;;8.00;94614.00;;;;8221508;28;20215;-81
2023/12/22 16:58:39;;;;;;;7.40;4.07;;;;;8.10;94620.00;;;;8217778;28;20227;-81
2023/12/22 17:02:42;;;;;;;7.03;6.32;;;;;8.10;94624.00;;;;8219603;28;20231;-80
2023/12/22 17:06:51;;;;;;;3.95;3.17;;;;;8.10;94577.00;;;;8219085;28;20203;-79
2023/12/22 17:10:56;;;;;;;2.47;2.28;;;;;8.00;94600.00;;;;8217289;28;20307;-76
2023/12/22 17:14:59;;;;;;;2.22;2.00;;;;;7.90;94605.00;;;;8219238;28;20204;-76
2023/12/22 17:19:02;;;;;;;2.47;2.38;;;;;7.90;94598.00;;;;8216814;28;20318;-77
2023/12/22 17:23:07;;;;;;;1.30;1.20;;;;;8.00;94601.00;;;;8217338;28;20208;-78
2023/12/22 17:27:10;;;;;;;1.75;1.20;;;;;8.00;94585.00;;;;8216260;28;20904;-79
2023/12/22 17:31:14;;;;;;;2.83;0.95;;;;;8.10;94581.00;;;;8214627;28;20199;-83
2023/12/22 17:35:17;;;;;;;1.40;1.40;;;;;8.30;94587.00;;;;8214018;28;20192;-85
2023/12/22 17:39:21;;;;;;;1.10;1.10;;;;;8.40;94546.00;;;;8214831;28;20975;-84
2023/12/22 17:43:25;;;;;;;3.97;1.25;;;;;8.50;94615.00;;;;8216330;28;20330;-85
2023/12/22 17:47:29;;;;;;;1.50;1.40;;;;;8.50;94593.00;;;;8213698;28;20234;-87
2023/12/22 17:51:33;;;;;;;0.93;0.90;;;;;8.50;94582.00;;;;8215003;28;20196;-83
2023/12/22 17:55:37;;;;;;;3.97;1.20;;;;;8.60;94557.00;;;;8222327;28;20227;-83
2023/12/22 17:59:41;;;;;;;1.30;1.30;;;;;8.60;94581.00;;;;8216341;28;20238;-83
2023/12/22 18:03:44;;;;;;;2.08;1.60;;;;;8.60;94581.00;;;;8214705;28;20235;-84
2023/12/22 18:07:47;;;;;;;1.70;1.25;;;;;8.60;94585.00;;;;8223197;28;20234;-82
2023/12/22 18:11:52;;;;;;;1.73;1.30;;;;;8.60;94589.00;;;;8218299;28;20325;-81
2023/12/22 18:15:55;;;;;;;1.02;1.02;;;;;8.70;94569.00;;;;8217237;28;20287;-80
2023/12/22 18:19:58;;;;;;;2.33;1.50;;;;;8.80;94567.00;;;;8222374;28;20298;-81
2023/12/22 18:24:03;;;;;;;0.98;0.98;;;;;8.80;94612.00;;;;8215944;28;20207;-79
2023/12/22 18:28:08;;;;;;;1.08;1.08;;;;;8.90;94601.00;;;;8213249;28;20957;-80
2023/12/22 18:32:12;;;;;;;1.13;1.13;;;;;9.00;94645.00;;;;8211699;28;20199;-79
2023/12/22 18:36:15;;;;;;;1.20;1.10;;;;;9.00;94638.00;;;;8213981;28;20597;-79
2023/12/22 18:40:18;;;;;;;1.20;1.20;;;;;9.10;94610.00;;;;8214790;28;20211;-80
2023/12/22 18:44:23;;;;;;;2.33;1.40;;;;;9.00;94640.00;;;;8214757;28;20743;-80
2023/12/22 18:48:26;;;;;;;1.13;1.13;;;;;8.90;94605.00;;;;8215698;28;20318;-82
2023/12/22 18:52:29;;;;;;;1.42;1.10;;;;;8.70;94627.00;;;;8217162;28;20196;-81
2023/12/22 18:56:33;;;;;;;1.10;1.10;;;;;8.50;94643.00;;;;8213598;28;20203;-80
2023/12/22 19:00:37;;;;;;;1.33;1.23;;;;;8.50;94637.00;;;;8214466;28;20227;-75
2023/12/22 19:04:41;;;;;;;0.93;0.93;;;;;8.30;94647.00;;;;8215498;28;20231;-77
2023/12/22 19:08:46;;;;;;;1.35;1.25;;;;;8.30;94586.00;;;;8217712;28;20277;-79
2023/12/22 19:12:49;;;;;;;4.05;0.95;;;;;8.30;94633.00;;;;8210100;28;20736;-77
2023/12/22 19:16:55;;;;;;;3.40;1.00;;;;;8.20;94639.00;;;;8213829;28;20286;-75
2023/12/22 19:20:58;;;;;;;1.00;1.00;;;;;8.20;94644.00;;;;8210215;28;20454;-78
2023/12/22 19:25:02;;;;;;;1.00;1.00;;;;;8.30;94613.00;;;;8212758;28;20214;-78
2023/12/22 19:29:05;;;;;;;1.05;1.05;;;;;8.30;94648.00;;;;8215162;28;20263;-79
2023/12/22 19:33:10;;;;;;;1.65;1.10;;;;;8.30;94661.00;;;;8218028;28;20282;-80
2023/12/22 19:37:17;;;;;;;0.85;0.85;;;;;8.30;94663.00;;;;8213510;28;20994;-80
2023/12/22 19:41:21;;;;;;;1.20;1.20;;;;;8.40;94683.00;;;;8214092;28;20203;-82
2023/12/22 19:45:24;;;;;;;0.82;0.82;;;;;8.50;94699.00;;;;8213986;28;20254;-83
2023/12/22 19:49:28;;;;;;;1.15;1.15;;;;;8.50;94702.00;;;;8219185;28;20314;-84
2023/12/22 19:53:32;;;;;;;1.20;1.20;;;;;8.60;94701.00;;;;8215973;28;20199;-83
2023/12/22 19:57:35;;;;;;;1.35;1.27;;;;;8.50;94668.00;;;;8212546;28;20290;-77
2023/12/22 20:01:38;;;;;;;0.98;0.98;;;;;8.30;94629.00;;;;8212302;28;20250;-77
2023/12/22 20:05:43;;;;;;;1.02;1.02;;;;;8.30;94691.00;;;;8213173;28;20204;-78
2023/12/22 20:09:46;;;;;;;1.10;1.10;;;;;8.20;94694.00;;;;8212096;28;20223;-79
2023/12/22 20:13:49;;;;;;;1.95;1.13;;;;;8.20;94704.00;;;;8212847;28;20206;-80
2023/12/22 20:17:52;;;;;;;1.58;0.95;;;;;8.20;94675.00;;;;8212873;28;20508;-81
2023/12/22 20:21:58;;;;;;;0.80;0.80;;;;;8.30;94702.00;;;;8216783;28;20297;-82
2023/12/22 20:26:01;;;;;;;1.10;1.10;;;;;8.20;94728.00;;;;8215069;28;20833;-81
2023/12/22 20:30:05;;;;;;;2.15;1.20;;;;;8.20;94711.00;;;;8212584;28;20227;-81
2023/12/22 20:34:09;;;;;;;1.10;1.10;;;;;8.30;94726.00;;;;8209239;28;20199;-82
2023/12/22 20:38:13;;;;;;;1.00;1.00;;;;;8.30;94719.00;;;;8216585;28;20214;-75